sensor_id;sensor_type;location;lat;lon;timestamp;temperature;humidity
37222;DHT22;23119;51.842;-2.230;2023-01-08T00:01:06;9.10;99.90
37222;DHT22;23119;51.842;-2.230;2023-01-08T00:03:33;9.00;99.90
37222;DHT22;23119;51.842;-2.230;2023-01-08T00:06:03;9.00;99.90
37222;DHT22;23119;51.842;-2.230;2023-01-08T00:08:30;9.00;99.90
37222;DHT22;23119;51.842;-2.230;2023-01-08T00:11:01;8.90;99.90
37222;DHT22;23119;51.842;-2.230;2023-01-08T00:13:28;8.90;99.90
37222;DHT22;23119;51.842;-2.230;2023-01-08T00:15:54;8.90;99.90
37222;DHT22;23119;51.842;-2.230;2023-01-08T00:18:20;8.90;99.90
37222;DHT22;23119;51.842;-2.230;2023-01-08T00:20:46;8.80;99.90
37222;DHT22;23119;51.842;-2.230;2023-01-08T00:23:13;8.80;99.90
37222;DHT22;23119;51.842;-2.230;2023-01-08T00:25:39;8.80;99.90
37222;DHT22;23119;51.842;-2.230;2023-01-08T00:28:05;8.90;99.90
37222;DHT22;23119;51.842;-2.230;2023-01-08T00:30:31;8.90;99.90
37222;DHT22;23119;51.842;-2.230;2023-01-08T00:32:57;8.90;99.90
37222;DHT22;23119;51.842;-2.230;2023-01-08T00:35:25;8.90;99.90
37222;DHT22;23119;51.842;-2.230;2023-01-08T00:37:51;9.00;99.90
37222;DHT22;23119;51.842;-2.230;2023-01-08T00:40:16;9.00;99.90
37222;DHT22;23119;51.842;-2.230;2023-01-08T00:42:47;9.00;99.90
37222;DHT22;23119;51.842;-2.230;2023-01-08T00:45:13;9.00;99.90
37222;DHT22;23119;51.842;-2.230;2023-01-08T00:47:41;9.00;99.90
37222;DHT22;23119;51.842;-2.230;2023-01-08T00:50:07;9.00;99.90
37222;DHT22;23119;51.842;-2.230;2023-01-08T00:52:35;9.00;99.90
37222;DHT22;23119;51.842;-2.230;2023-01-08T00:55:01;9.00;99.90
37222;DHT22;23119;51.842;-2.230;2023-01-08T00:57:35;9.00;99.90
37222;DHT22;23119;51.842;-2.230;2023-01-08T01:00:04;9.00;99.90
37222;DHT22;23119;51.842;-2.230;2023-01-08T01:02:31;8.90;99.90
37222;DHT22;23119;51.842;-2.230;2023-01-08T01:04:56;8.90;99.90
37222;DHT22;23119;51.842;-2.230;2023-01-08T01:07:22;8.80;99.90
37222;DHT22;23119;51.842;-2.230;2023-01-08T01:09:48;8.80;99.90
37222;DHT22;23119;51.842;-2.230;2023-01-08T01:12:16;8.70;99.90
37222;DHT22;23119;51.842;-2.230;2023-01-08T01:14:42;8.70;99.90
37222;DHT22;23119;51.842;-2.230;2023-01-08T01:17:26;8.60;99.90
37222;DHT22;23119;51.842;-2.230;2023-01-08T01:19:54;8.50;99.90
37222;DHT22;23119;51.842;-2.230;2023-01-08T01:22:20;8.40;99.90
37222;DHT22;23119;51.842;-2.230;2023-01-08T01:24:46;8.30;99.90
37222;DHT22;23119;51.842;-2.230;2023-01-08T01:27:11;8.30;99.90
37222;DHT22;23119;51.842;-2.230;2023-01-08T01:29:37;8.20;99.90
37222;DHT22;23119;51.842;-2.230;2023-01-08T01:32:03;8.20;99.90
37222;DHT22;23119;51.842;-2.230;2023-01-08T01:34:29;8.10;99.90
37222;DHT22;23119;51.842;-2.230;2023-01-08T01:36:56;8.10;99.90
37222;DHT22;23119;51.842;-2.230;2023-01-08T01:39:22;8.10;99.90
37222;DHT22;23119;51.842;-2.230;2023-01-08T01:41:48;8.00;99.90
37222;DHT22;23119;51.842;-2.230;2023-01-08T01:47:25;8.00;99.90
37222;DHT22;23119;51.842;-2.230;2023-01-08T01:50:24;8.00;99.90
37222;DHT22;23119;51.842;-2.230;2023-01-08T01:53:00;8.00;99.90
37222;DHT22;23119;51.842;-2.230;2023-01-08T01:55:28;8.00;99.90
37222;DHT22;23119;51.842;-2.230;2023-01-08T02:00:34;8.00;99.90
37222;DHT22;23119;51.842;-2.230;2023-01-08T02:03:00;8.00;99.90
37222;DHT22;23119;51.842;-2.230;2023-01-08T02:05:32;8.00;99.90
37222;DHT22;23119;51.842;-2.230;2023-01-08T02:08:09;8.00;99.90
37222;DHT22;23119;51.842;-2.230;2023-01-08T02:10:52;8.00;99.90
37222;DHT22;23119;51.842;-2.230;2023-01-08T02:13:34;8.00;99.90
37222;DHT22;23119;51.842;-2.230;2023-01-08T02:16:40;8.00;99.90
37222;DHT22;23119;51.842;-2.230;2023-01-08T02:19:15;8.00;99.90
37222;DHT22;23119;51.842;-2.230;2023-01-08T02:21:56;7.90;99.90
37222;DHT22;23119;51.842;-2.230;2023-01-08T02:24:58;7.90;99.90
37222;DHT22;23119;51.842;-2.230;2023-01-08T02:27:24;7.80;99.90
37222;DHT22;23119;51.842;-2.230;2023-01-08T02:29:52;7.80;99.90
37222;DHT22;23119;51.842;-2.230;2023-01-08T02:32:31;7.80;99.90
37222;DHT22;23119;51.842;-2.230;2023-01-08T02:34:57;7.90;99.90
37222;DHT22;23119;51.842;-2.230;2023-01-08T02:37:25;7.90;99.90
37222;DHT22;23119;51.842;-2.230;2023-01-08T02:40:16;7.90;99.90
37222;DHT22;23119;51.842;-2.230;2023-01-08T02:42:58;8.00;99.90
37222;DHT22;23119;51.842;-2.230;2023-01-08T02:48:05;8.00;99.90
37222;DHT22;23119;51.842;-2.230;2023-01-08T02:53:40;8.10;99.90
37222;DHT22;23119;51.842;-2.230;2023-01-08T02:56:14;8.20;99.90
37222;DHT22;23119;51.842;-2.230;2023-01-08T02:58:43;8.20;99.90
37222;DHT22;23119;51.842;-2.230;2023-01-08T03:01:13;8.20;99.90
37222;DHT22;23119;51.842;-2.230;2023-01-08T03:03:45;8.20;99.90
37222;DHT22;23119;51.842;-2.230;2023-01-08T03:06:17;8.20;99.90
37222;DHT22;23119;51.842;-2.230;2023-01-08T03:08:48;8.30;99.90
37222;DHT22;23119;51.842;-2.230;2023-01-08T03:11:18;8.30;99.90
37222;DHT22;23119;51.842;-2.230;2023-01-08T03:14:06;8.30;99.90
37222;DHT22;23119;51.842;-2.230;2023-01-08T03:16:41;8.30;99.90
37222;DHT22;23119;51.842;-2.230;2023-01-08T03:19:19;8.30;99.90
37222;DHT22;23119;51.842;-2.230;2023-01-08T03:21:51;8.30;99.90
37222;DHT22;23119;51.842;-2.230;2023-01-08T03:24:21;8.40;99.90
37222;DHT22;23119;51.842;-2.230;2023-01-08T03:26:49;8.40;99.90
37222;DHT22;23119;51.842;-2.230;2023-01-08T03:29:19;8.40;99.90
37222;DHT22;23119;51.842;-2.230;2023-01-08T03:31:46;8.40;99.90
37222;DHT22;23119;51.842;-2.230;2023-01-08T03:34:22;8.40;99.90
37222;DHT22;23119;51.842;-2.230;2023-01-08T03:36:50;8.40;99.90
37222;DHT22;23119;51.842;-2.230;2023-01-08T03:39:25;8.40;99.90
37222;DHT22;23119;51.842;-2.230;2023-01-08T03:41:57;8.40;99.90
37222;DHT22;23119;51.842;-2.230;2023-01-08T03:44:26;8.50;99.90
37222;DHT22;23119;51.842;-2.230;2023-01-08T03:46:53;8.50;99.90
37222;DHT22;23119;51.842;-2.230;2023-01-08T03:49:22;8.50;99.90
37222;DHT22;23119;51.842;-2.230;2023-01-08T03:51:49;8.50;99.90
37222;DHT22;23119;51.842;-2.230;2023-01-08T03:54:20;8.50;99.90
37222;DHT22;23119;51.842;-2.230;2023-01-08T03:56:47;8.50;99.90
37222;DHT22;23119;51.842;-2.230;2023-01-08T03:59:14;8.50;99.90
37222;DHT22;23119;51.842;-2.230;2023-01-08T04:01:40;8.50;99.90
37222;DHT22;23119;51.842;-2.230;2023-01-08T04:04:07;8.50;99.90
37222;DHT22;23119;51.842;-2.230;2023-01-08T04:06:33;8.50;99.90
37222;DHT22;23119;51.842;-2.230;2023-01-08T04:08:58;8.50;99.90
37222;DHT22;23119;51.842;-2.230;2023-01-08T04:11:24;9.00;99.90
37222;DHT22;23119;51.842;-2.230;2023-01-08T04:13:50;8.50;99.90
37222;DHT22;23119;51.842;-2.230;2023-01-08T04:16:16;8.50;99.90
37222;DHT22;23119;51.842;-2.230;2023-01-08T04:18:41;8.50;99.90
37222;DHT22;23119;51.842;-2.230;2023-01-08T04:21:09;8.50;99.90
37222;DHT22;23119;51.842;-2.230;2023-01-08T04:23:35;8.50;99.90
37222;DHT22;23119;51.842;-2.230;2023-01-08T04:26:05;8.50;99.90
37222;DHT22;23119;51.842;-2.230;2023-01-08T04:28:30;8.40;99.90
37222;DHT22;23119;51.842;-2.230;2023-01-08T04:30:56;8.40;99.90
37222;DHT22;23119;51.842;-2.230;2023-01-08T04:33:22;8.40;99.90
37222;DHT22;23119;51.842;-2.230;2023-01-08T04:35:47;8.40;99.90
37222;DHT22;23119;51.842;-2.230;2023-01-08T04:38:13;8.40;99.90
37222;DHT22;23119;51.842;-2.230;2023-01-08T04:40:39;8.40;99.90
37222;DHT22;23119;51.842;-2.230;2023-01-08T04:43:08;8.30;99.90
37222;DHT22;23119;51.842;-2.230;2023-01-08T04:45:36;8.30;99.90
37222;DHT22;23119;51.842;-2.230;2023-01-08T04:48:02;8.30;99.90
37222;DHT22;23119;51.842;-2.230;2023-01-08T04:50:30;8.30;99.90
37222;DHT22;23119;51.842;-2.230;2023-01-08T04:52:57;8.30;99.90
37222;DHT22;23119;51.842;-2.230;2023-01-08T04:55:23;8.30;99.90
37222;DHT22;23119;51.842;-2.230;2023-01-08T04:57:49;8.20;99.90
37222;DHT22;23119;51.842;-2.230;2023-01-08T05:00:15;8.20;99.90
37222;DHT22;23119;51.842;-2.230;2023-01-08T05:02:41;8.20;99.90
37222;DHT22;23119;51.842;-2.230;2023-01-08T05:05:07;8.10;99.90
37222;DHT22;23119;51.842;-2.230;2023-01-08T05:07:33;8.00;99.90
37222;DHT22;23119;51.842;-2.230;2023-01-08T05:09:58;8.00;99.90
37222;DHT22;23119;51.842;-2.230;2023-01-08T05:12:24;7.90;99.90
37222;DHT22;23119;51.842;-2.230;2023-01-08T05:14:50;7.90;99.90
37222;DHT22;23119;51.842;-2.230;2023-01-08T05:17:18;7.80;99.90
37222;DHT22;23119;51.842;-2.230;2023-01-08T05:19:43;7.80;99.90
37222;DHT22;23119;51.842;-2.230;2023-01-08T05:22:09;7.80;99.90
37222;DHT22;23119;51.842;-2.230;2023-01-08T05:24:39;7.70;99.90
37222;DHT22;23119;51.842;-2.230;2023-01-08T05:27:05;7.80;99.90
37222;DHT22;23119;51.842;-2.230;2023-01-08T05:29:31;7.80;99.90
37222;DHT22;23119;51.842;-2.230;2023-01-08T05:31:58;7.80;99.90
37222;DHT22;23119;51.842;-2.230;2023-01-08T05:34:24;7.70;99.90
37222;DHT22;23119;51.842;-2.230;2023-01-08T05:36:50;7.70;99.90
37222;DHT22;23119;51.842;-2.230;2023-01-08T05:39:15;7.70;99.90
37222;DHT22;23119;51.842;-2.230;2023-01-08T05:41:43;7.70;99.90
37222;DHT22;23119;51.842;-2.230;2023-01-08T05:44:09;7.70;99.90
37222;DHT22;23119;51.842;-2.230;2023-01-08T05:46:35;7.70;99.90
37222;DHT22;23119;51.842;-2.230;2023-01-08T05:49:03;7.70;99.90
37222;DHT22;23119;51.842;-2.230;2023-01-08T05:51:29;7.70;99.90
37222;DHT22;23119;51.842;-2.230;2023-01-08T05:53:55;7.70;99.90
37222;DHT22;23119;51.842;-2.230;2023-01-08T05:56:21;7.70;99.90
37222;DHT22;23119;51.842;-2.230;2023-01-08T05:58:46;7.70;99.90
37222;DHT22;23119;51.842;-2.230;2023-01-08T06:01:13;7.70;99.90
37222;DHT22;23119;51.842;-2.230;2023-01-08T06:03:41;7.80;99.90
37222;DHT22;23119;51.842;-2.230;2023-01-08T06:06:09;7.70;99.90
37222;DHT22;23119;51.842;-2.230;2023-01-08T06:08:35;7.80;99.90
37222;DHT22;23119;51.842;-2.230;2023-01-08T06:11:03;7.70;99.90
37222;DHT22;23119;51.842;-2.230;2023-01-08T06:13:30;7.60;99.90
37222;DHT22;23119;51.842;-2.230;2023-01-08T06:16:17;7.60;99.90
37222;DHT22;23119;51.842;-2.230;2023-01-08T06:18:45;7.60;99.90
37222;DHT22;23119;51.842;-2.230;2023-01-08T06:21:11;7.50;99.90
37222;DHT22;23119;51.842;-2.230;2023-01-08T06:23:40;7.40;99.90
37222;DHT22;23119;51.842;-2.230;2023-01-08T06:26:10;7.50;99.90
37222;DHT22;23119;51.842;-2.230;2023-01-08T06:28:36;7.40;99.90
37222;DHT22;23119;51.842;-2.230;2023-01-08T06:31:04;7.40;99.90
37222;DHT22;23119;51.842;-2.230;2023-01-08T06:33:30;7.40;99.90
37222;DHT22;23119;51.842;-2.230;2023-01-08T06:36:12;7.30;99.90
37222;DHT22;23119;51.842;-2.230;2023-01-08T06:38:37;7.30;99.90
37222;DHT22;23119;51.842;-2.230;2023-01-08T06:41:05;7.30;99.90
37222;DHT22;23119;51.842;-2.230;2023-01-08T06:43:34;7.20;99.90
37222;DHT22;23119;51.842;-2.230;2023-01-08T06:46:00;7.20;99.90
37222;DHT22;23119;51.842;-2.230;2023-01-08T06:48:26;7.20;99.90
37222;DHT22;23119;51.842;-2.230;2023-01-08T06:50:54;7.20;99.90
37222;DHT22;23119;51.842;-2.230;2023-01-08T06:53:21;7.20;99.90
37222;DHT22;23119;51.842;-2.230;2023-01-08T06:55:47;7.20;99.90
37222;DHT22;23119;51.842;-2.230;2023-01-08T06:58:13;7.20;99.90
37222;DHT22;23119;51.842;-2.230;2023-01-08T07:00:41;7.20;99.90
37222;DHT22;23119;51.842;-2.230;2023-01-08T07:03:13;7.20;99.90
37222;DHT22;23119;51.842;-2.230;2023-01-08T07:05:39;7.20;99.90
37222;DHT22;23119;51.842;-2.230;2023-01-08T07:08:12;7.20;99.90
37222;DHT22;23119;51.842;-2.230;2023-01-08T07:10:38;7.20;99.90
37222;DHT22;23119;51.842;-2.230;2023-01-08T07:13:04;7.20;99.90
37222;DHT22;23119;51.842;-2.230;2023-01-08T07:15:32;7.20;99.90
37222;DHT22;23119;51.842;-2.230;2023-01-08T07:17:58;7.20;99.90
37222;DHT22;23119;51.842;-2.230;2023-01-08T07:20:23;7.20;99.90
37222;DHT22;23119;51.842;-2.230;2023-01-08T07:22:51;7.20;99.90
37222;DHT22;23119;51.842;-2.230;2023-01-08T07:25:17;7.20;99.90
37222;DHT22;23119;51.842;-2.230;2023-01-08T07:27:43;7.20;99.90
37222;DHT22;23119;51.842;-2.230;2023-01-08T07:30:09;7.10;99.90
37222;DHT22;23119;51.842;-2.230;2023-01-08T07:32:34;7.10;99.90
37222;DHT22;23119;51.842;-2.230;2023-01-08T07:35:03;7.10;99.90
37222;DHT22;23119;51.842;-2.230;2023-01-08T07:37:29;7.10;99.90
37222;DHT22;23119;51.842;-2.230;2023-01-08T07:39:55;7.10;99.90
37222;DHT22;23119;51.842;-2.230;2023-01-08T07:42:37;7.10;99.90
37222;DHT22;23119;51.842;-2.230;2023-01-08T07:45:07;7.00;99.90
37222;DHT22;23119;51.842;-2.230;2023-01-08T07:47:33;7.10;99.90
37222;DHT22;23119;51.842;-2.230;2023-01-08T07:49:58;7.00;99.90
37222;DHT22;23119;51.842;-2.230;2023-01-08T07:52:25;7.10;99.90
37222;DHT22;23119;51.842;-2.230;2023-01-08T07:54:53;7.10;99.90
37222;DHT22;23119;51.842;-2.230;2023-01-08T07:57:18;7.10;99.90
37222;DHT22;23119;51.842;-2.230;2023-01-08T07:59:44;7.10;99.90
37222;DHT22;23119;51.842;-2.230;2023-01-08T08:02:10;7.20;99.90
37222;DHT22;23119;51.842;-2.230;2023-01-08T08:04:41;7.20;99.90
37222;DHT22;23119;51.842;-2.230;2023-01-08T08:07:06;7.20;99.90
37222;DHT22;23119;51.842;-2.230;2023-01-08T08:09:32;7.30;99.90
37222;DHT22;23119;51.842;-2.230;2023-01-08T08:11:58;7.30;99.90
37222;DHT22;23119;51.842;-2.230;2023-01-08T08:14:23;7.30;99.90
37222;DHT22;23119;51.842;-2.230;2023-01-08T08:16:49;7.30;99.90
37222;DHT22;23119;51.842;-2.230;2023-01-08T08:19:15;7.30;99.90
37222;DHT22;23119;51.842;-2.230;2023-01-08T08:21:40;7.40;99.90
37222;DHT22;23119;51.842;-2.230;2023-01-08T08:24:06;7.40;99.90
37222;DHT22;23119;51.842;-2.230;2023-01-08T08:26:34;7.40;99.90
37222;DHT22;23119;51.842;-2.230;2023-01-08T08:29:00;7.40;99.90
37222;DHT22;23119;51.842;-2.230;2023-01-08T08:31:26;7.40;99.90
37222;DHT22;23119;51.842;-2.230;2023-01-08T08:33:52;7.40;99.90
37222;DHT22;23119;51.842;-2.230;2023-01-08T08:36:17;7.50;99.90
37222;DHT22;23119;51.842;-2.230;2023-01-08T08:38:46;7.50;99.90
37222;DHT22;23119;51.842;-2.230;2023-01-08T08:41:11;7.50;99.90
37222;DHT22;23119;51.842;-2.230;2023-01-08T08:43:40;7.50;99.90
37222;DHT22;23119;51.842;-2.230;2023-01-08T08:46:06;7.60;99.90
37222;DHT22;23119;51.842;-2.230;2023-01-08T08:48:34;7.60;99.90
37222;DHT22;23119;51.842;-2.230;2023-01-08T08:50:59;7.70;99.90
37222;DHT22;23119;51.842;-2.230;2023-01-08T08:53:25;7.70;99.90
37222;DHT22;23119;51.842;-2.230;2023-01-08T08:55:53;7.80;99.90
37222;DHT22;23119;51.842;-2.230;2023-01-08T08:58:19;7.80;99.90
37222;DHT22;23119;51.842;-2.230;2023-01-08T09:00:44;7.80;99.90
37222;DHT22;23119;51.842;-2.230;2023-01-08T09:03:12;7.90;99.90
37222;DHT22;23119;51.842;-2.230;2023-01-08T09:05:44;7.90;99.90
37222;DHT22;23119;51.842;-2.230;2023-01-08T09:08:11;8.00;99.90
37222;DHT22;23119;51.842;-2.230;2023-01-08T09:10:40;8.00;99.90
37222;DHT22;23119;51.842;-2.230;2023-01-08T09:13:07;8.10;99.90
37222;DHT22;23119;51.842;-2.230;2023-01-08T09:15:32;8.20;99.90
37222;DHT22;23119;51.842;-2.230;2023-01-08T09:17:58;8.30;99.90
37222;DHT22;23119;51.842;-2.230;2023-01-08T09:20:25;8.30;99.90
37222;DHT22;23119;51.842;-2.230;2023-01-08T09:22:51;8.30;99.90
37222;DHT22;23119;51.842;-2.230;2023-01-08T09:25:17;8.30;99.90
37222;DHT22;23119;51.842;-2.230;2023-01-08T09:27:43;8.30;99.90
37222;DHT22;23119;51.842;-2.230;2023-01-08T09:30:09;8.20;99.90
37222;DHT22;23119;51.842;-2.230;2023-01-08T09:32:37;8.20;99.90
37222;DHT22;23119;51.842;-2.230;2023-01-08T09:35:03;8.20;99.90
37222;DHT22;23119;51.842;-2.230;2023-01-08T09:37:30;8.20;99.90
37222;DHT22;23119;51.842;-2.230;2023-01-08T09:39:58;8.20;99.90
37222;DHT22;23119;51.842;-2.230;2023-01-08T09:42:26;8.30;99.90
37222;DHT22;23119;51.842;-2.230;2023-01-08T09:44:57;8.40;99.90
37222;DHT22;23119;51.842;-2.230;2023-01-08T09:47:27;8.30;99.90
37222;DHT22;23119;51.842;-2.230;2023-01-08T09:50:01;8.40;99.90
37222;DHT22;23119;51.842;-2.230;2023-01-08T09:52:30;8.40;99.90
37222;DHT22;23119;51.842;-2.230;2023-01-08T09:55:00;8.40;99.90
37222;DHT22;23119;51.842;-2.230;2023-01-08T09:57:28;8.40;99.90
37222;DHT22;23119;51.842;-2.230;2023-01-08T09:59:54;8.40;99.90
37222;DHT22;23119;51.842;-2.230;2023-01-08T10:02:22;8.40;99.90
37222;DHT22;23119;51.842;-2.230;2023-01-08T10:04:54;8.40;99.90
37222;DHT22;23119;51.842;-2.230;2023-01-08T10:07:25;8.40;99.90
37222;DHT22;23119;51.842;-2.230;2023-01-08T10:09:55;8.50;99.90
37222;DHT22;23119;51.842;-2.230;2023-01-08T10:12:31;8.50;99.90
37222;DHT22;23119;51.842;-2.230;2023-01-08T10:15:03;8.50;99.90
37222;DHT22;23119;51.842;-2.230;2023-01-08T10:20:09;8.60;99.90
37222;DHT22;23119;51.842;-2.230;2023-01-08T10:22:38;8.60;99.90
37222;DHT22;23119;51.842;-2.230;2023-01-08T10:25:15;8.70;99.90
37222;DHT22;23119;51.842;-2.230;2023-01-08T10:27:51;8.70;99.90
37222;DHT22;23119;51.842;-2.230;2023-01-08T10:30:22;8.80;99.90
37222;DHT22;23119;51.842;-2.230;2023-01-08T10:32:52;8.90;99.90
37222;DHT22;23119;51.842;-2.230;2023-01-08T10:35:28;9.10;99.90
37222;DHT22;23119;51.842;-2.230;2023-01-08T10:37:55;9.30;99.90
37222;DHT22;23119;51.842;-2.230;2023-01-08T10:40:39;9.40;99.90
37222;DHT22;23119;51.842;-2.230;2023-01-08T10:45:38;9.40;99.90
37222;DHT22;23119;51.842;-2.230;2023-01-08T10:48:11;9.40;99.90
37222;DHT22;23119;51.842;-2.230;2023-01-08T10:50:40;9.40;99.90
37222;DHT22;23119;51.842;-2.230;2023-01-08T10:53:24;9.40;99.90
37222;DHT22;23119;51.842;-2.230;2023-01-08T10:56:01;9.40;99.90
37222;DHT22;23119;51.842;-2.230;2023-01-08T10:58:28;9.50;99.90
37222;DHT22;23119;51.842;-2.230;2023-01-08T11:01:07;9.70;99.90
37222;DHT22;23119;51.842;-2.230;2023-01-08T11:03:36;9.90;99.90
37222;DHT22;23119;51.842;-2.230;2023-01-08T11:06:43;10.00;99.90
37222;DHT22;23119;51.842;-2.230;2023-01-08T11:09:21;10.10;99.90
37222;DHT22;23119;51.842;-2.230;2023-01-08T11:11:48;10.20;99.90
37222;DHT22;23119;51.842;-2.230;2023-01-08T11:14:40;10.20;99.90
37222;DHT22;23119;51.842;-2.230;2023-01-08T11:17:13;10.30;99.90
37222;DHT22;23119;51.842;-2.230;2023-01-08T11:19:39;10.40;99.90
37222;DHT22;23119;51.842;-2.230;2023-01-08T11:22:22;10.30;99.90
37222;DHT22;23119;51.842;-2.230;2023-01-08T11:24:49;10.30;99.90
37222;DHT22;23119;51.842;-2.230;2023-01-08T11:27:22;10.20;99.90
37222;DHT22;23119;51.842;-2.230;2023-01-08T11:32:47;10.30;99.90
37222;DHT22;23119;51.842;-2.230;2023-01-08T11:35:30;10.20;99.90
37222;DHT22;23119;51.842;-2.230;2023-01-08T11:38:05;10.20;99.90
37222;DHT22;23119;51.842;-2.230;2023-01-08T11:40:49;10.10;99.90
37222;DHT22;23119;51.842;-2.230;2023-01-08T11:49:28;9.90;99.90
37222;DHT22;23119;51.842;-2.230;2023-01-08T11:51:47;10.00;99.90
37222;DHT22;23119;51.842;-2.230;2023-01-08T11:54:39;10.00;99.90
37222;DHT22;23119;51.842;-2.230;2023-01-08T11:58:09;10.10;99.90
37222;DHT22;23119;51.842;-2.230;2023-01-08T12:00:58;10.20;99.90
37222;DHT22;23119;51.842;-2.230;2023-01-08T12:03:53;10.20;99.90
37222;DHT22;23119;51.842;-2.230;2023-01-08T12:06:34;10.30;99.90
37222;DHT22;23119;51.842;-2.230;2023-01-08T12:15:19;10.30;99.90
37222;DHT22;23119;51.842;-2.230;2023-01-08T12:24:06;10.40;99.90
37222;DHT22;23119;51.842;-2.230;2023-01-08T12:32:20;10.40;99.90
37222;DHT22;23119;51.842;-2.230;2023-01-08T12:35:12;10.40;99.90
37222;DHT22;23119;51.842;-2.230;2023-01-08T12:38:02;10.40;99.90
37222;DHT22;23119;51.842;-2.230;2023-01-08T12:46:17;10.20;99.90
37222;DHT22;23119;51.842;-2.230;2023-01-08T12:48:48;10.20;99.90
37222;DHT22;23119;51.842;-2.230;2023-01-08T12:57:10;10.20;99.90
37222;DHT22;23119;51.842;-2.230;2023-01-08T12:59:53;10.10;99.90
37222;DHT22;23119;51.842;-2.230;2023-01-08T13:02:48;10.10;99.90
37222;DHT22;23119;51.842;-2.230;2023-01-08T13:07:48;10.20;99.90
37222;DHT22;23119;51.842;-2.230;2023-01-08T13:10:48;10.10;99.90
37222;DHT22;23119;51.842;-2.230;2023-01-08T13:16:19;10.00;99.90
37222;DHT22;23119;51.842;-2.230;2023-01-08T13:19:01;9.90;99.90
37222;DHT22;23119;51.842;-2.230;2023-01-08T13:26:37;9.90;99.90
37222;DHT22;23119;51.842;-2.230;2023-01-08T13:29:34;10.00;99.90
37222;DHT22;23119;51.842;-2.230;2023-01-08T13:32:00;10.10;99.90
37222;DHT22;23119;51.842;-2.230;2023-01-08T13:34:39;10.20;99.90
37222;DHT22;23119;51.842;-2.230;2023-01-08T13:37:07;10.40;99.90
37222;DHT22;23119;51.842;-2.230;2023-01-08T13:39:41;10.40;99.90
37222;DHT22;23119;51.842;-2.230;2023-01-08T13:42:23;10.50;99.90
37222;DHT22;23119;51.842;-2.230;2023-01-08T13:44:58;10.50;99.90
37222;DHT22;23119;51.842;-2.230;2023-01-08T13:47:28;10.40;99.90
37222;DHT22;23119;51.842;-2.230;2023-01-08T13:49:55;10.30;99.90
37222;DHT22;23119;51.842;-2.230;2023-01-08T13:55:26;10.30;99.90
37222;DHT22;23119;51.842;-2.230;2023-01-08T13:57:58;10.30;99.90
37222;DHT22;23119;51.842;-2.230;2023-01-08T14:00:46;10.20;99.90
37222;DHT22;23119;51.842;-2.230;2023-01-08T14:03:43;10.10;99.90
37222;DHT22;23119;51.842;-2.230;2023-01-08T14:06:19;10.10;99.90
37222;DHT22;23119;51.842;-2.230;2023-01-08T14:09:02;10.00;99.90
37222;DHT22;23119;51.842;-2.230;2023-01-08T14:11:45;10.00;99.90
37222;DHT22;23119;51.842;-2.230;2023-01-08T14:14:15;9.90;99.90
37222;DHT22;23119;51.842;-2.230;2023-01-08T14:16:43;9.90;99.90
37222;DHT22;23119;51.842;-2.230;2023-01-08T14:19:19;9.80;99.90
37222;DHT22;23119;51.842;-2.230;2023-01-08T14:22:18;9.80;99.90
37222;DHT22;23119;51.842;-2.230;2023-01-08T14:24:55;9.70;99.90
37222;DHT22;23119;51.842;-2.230;2023-01-08T14:27:25;9.70;99.90
37222;DHT22;23119;51.842;-2.230;2023-01-08T14:29:51;9.60;99.90
37222;DHT22;23119;51.842;-2.230;2023-01-08T14:32:29;9.50;99.90
37222;DHT22;23119;51.842;-2.230;2023-01-08T14:34:57;9.50;99.90
37222;DHT22;23119;51.842;-2.230;2023-01-08T14:37:28;9.40;99.90
37222;DHT22;23119;51.842;-2.230;2023-01-08T14:39:56;9.40;99.90
37222;DHT22;23119;51.842;-2.230;2023-01-08T14:42:32;9.40;99.90
37222;DHT22;23119;51.842;-2.230;2023-01-08T14:45:29;9.30;99.90
37222;DHT22;23119;51.842;-2.230;2023-01-08T14:50:28;9.20;99.90
37222;DHT22;23119;51.842;-2.230;2023-01-08T14:53:07;9.20;99.90
37222;DHT22;23119;51.842;-2.230;2023-01-08T14:55:44;9.10;99.90
37222;DHT22;23119;51.842;-2.230;2023-01-08T14:58:22;9.10;99.90
37222;DHT22;23119;51.842;-2.230;2023-01-08T15:01:00;9.10;99.90
37222;DHT22;23119;51.842;-2.230;2023-01-08T15:03:39;9.00;99.90
37222;DHT22;23119;51.842;-2.230;2023-01-08T15:06:09;9.10;99.90
37222;DHT22;23119;51.842;-2.230;2023-01-08T15:08:39;9.00;99.90
37222;DHT22;23119;51.842;-2.230;2023-01-08T15:13:49;8.90;99.90
37222;DHT22;23119;51.842;-2.230;2023-01-08T15:19:18;8.80;99.90
37222;DHT22;23119;51.842;-2.230;2023-01-08T15:21:47;8.70;99.90
37222;DHT22;23119;51.842;-2.230;2023-01-08T15:24:36;8.50;99.90
37222;DHT22;23119;51.842;-2.230;2023-01-08T15:27:17;8.20;99.90
37222;DHT22;23119;51.842;-2.230;2023-01-08T15:29:49;8.00;99.90
37222;DHT22;23119;51.842;-2.230;2023-01-08T15:32:27;7.80;99.90
37222;DHT22;23119;51.842;-2.230;2023-01-08T15:34:57;7.70;99.90
37222;DHT22;23119;51.842;-2.230;2023-01-08T15:37:23;7.50;99.90
37222;DHT22;23119;51.842;-2.230;2023-01-08T15:39:51;7.40;99.90
37222;DHT22;23119;51.842;-2.230;2023-01-08T15:42:22;7.30;99.90
37222;DHT22;23119;51.842;-2.230;2023-01-08T15:45:24;7.30;99.90
37222;DHT22;23119;51.842;-2.230;2023-01-08T15:47:52;7.20;99.90
37222;DHT22;23119;51.842;-2.230;2023-01-08T15:50:21;7.20;99.90
37222;DHT22;23119;51.842;-2.230;2023-01-08T15:52:48;7.20;99.90
37222;DHT22;23119;51.842;-2.230;2023-01-08T15:55:17;7.10;99.90
37222;DHT22;23119;51.842;-2.230;2023-01-08T15:57:45;7.10;99.90
37222;DHT22;23119;51.842;-2.230;2023-01-08T16:00:13;7.10;99.90
37222;DHT22;23119;51.842;-2.230;2023-01-08T16:02:44;7.00;99.90
37222;DHT22;23119;51.842;-2.230;2023-01-08T16:05:13;7.00;99.90
37222;DHT22;23119;51.842;-2.230;2023-01-08T16:07:41;7.00;99.90
37222;DHT22;23119;51.842;-2.230;2023-01-08T16:10:11;7.00;99.90
37222;DHT22;23119;51.842;-2.230;2023-01-08T16:12:37;6.90;99.90
37222;DHT22;23119;51.842;-2.230;2023-01-08T16:15:08;6.90;99.90
37222;DHT22;23119;51.842;-2.230;2023-01-08T16:17:36;6.90;99.90
37222;DHT22;23119;51.842;-2.230;2023-01-08T16:20:08;6.90;99.90
37222;DHT22;23119;51.842;-2.230;2023-01-08T16:22:34;6.90;99.90
37222;DHT22;23119;51.842;-2.230;2023-01-08T16:25:03;6.90;99.90
37222;DHT22;23119;51.842;-2.230;2023-01-08T16:27:50;6.80;99.90
37222;DHT22;23119;51.842;-2.230;2023-01-08T16:30:18;6.80;99.90
37222;DHT22;23119;51.842;-2.230;2023-01-08T16:32:53;6.80;99.90
37222;DHT22;23119;51.842;-2.230;2023-01-08T16:35:24;6.70;99.90
37222;DHT22;23119;51.842;-2.230;2023-01-08T16:37:52;6.60;99.90
37222;DHT22;23119;51.842;-2.230;2023-01-08T16:40:20;6.60;99.90
37222;DHT22;23119;51.842;-2.230;2023-01-08T16:42:46;6.60;99.90
37222;DHT22;23119;51.842;-2.230;2023-01-08T16:45:14;6.50;99.90
37222;DHT22;23119;51.842;-2.230;2023-01-08T16:47:43;6.50;99.90
37222;DHT22;23119;51.842;-2.230;2023-01-08T16:50:10;6.50;99.90
37222;DHT22;23119;51.842;-2.230;2023-01-08T16:52:37;6.40;99.90
37222;DHT22;23119;51.842;-2.230;2023-01-08T16:55:04;6.40;99.90
37222;DHT22;23119;51.842;-2.230;2023-01-08T16:57:30;6.40;99.90
37222;DHT22;23119;51.842;-2.230;2023-01-08T17:00:03;6.30;99.90
37222;DHT22;23119;51.842;-2.230;2023-01-08T17:02:29;6.30;99.90
37222;DHT22;23119;51.842;-2.230;2023-01-08T17:04:55;6.30;99.90
37222;DHT22;23119;51.842;-2.230;2023-01-08T17:07:21;6.30;99.90
37222;DHT22;23119;51.842;-2.230;2023-01-08T17:09:46;6.20;99.90